Time;durP1;ratioP1;P1;durP2;ratioP2;P2;SDS_P1;SDS_P2;PMS_P1;PMS_P2;Temp;Humidity;BMP_temperature;BMP_pressure;BME280_temperature;BME280_humidity;BME280_pressure;Samples;Min_cycle;Max_cycle;Signal;HPM_P1;HPM_P2
2023/09/15 00:02:28;;;;;;;4.43;3.13;;;13.40;99.90;;;;;;5258570;28;20198;-49
2023/09/15 00:04:58;;;;;;;6.20;3.23;;;13.30;99.90;;;;;;5264715;28;20174;-47
2023/09/15 00:07:29;;;;;;;2.57;2.37;;;13.30;99.90;;;;;;5248435;28;20439;-49
2023/09/15 00:10:00;;;;;;;3.17;2.90;;;13.30;99.90;;;;;;5255629;28;20201;-48
2023/09/15 00:12:31;;;;;;;4.13;2.67;;;13.30;99.90;;;;;;5263456;28;20443;-47
2023/09/15 00:15:07;;;;;;;3.40;2.80;;;13.30;99.90;;;;;;5236601;28;20177;-49
2023/09/15 00:17:39;;;;;;;3.10;2.43;;;13.30;99.90;;;;;;5259420;28;20762;-47
2023/09/15 00:20:14;;;;;;;4.00;3.50;;;13.20;99.90;;;;;;5247431;28;20478;-47
2023/09/15 00:22:49;;;;;;;4.03;3.20;;;13.20;99.90;;;;;;5253064;28;20454;-49
2023/09/15 00:25:21;;;;;;;3.90;3.60;;;13.20;99.90;;;;;;5245016;28;20486;-48
2023/09/15 00:27:59;;;;;;;6.90;3.50;;;13.20;99.90;;;;;;5240162;28;20574;-49
2023/09/15 00:30:30;;;;;;;4.30;3.90;;;13.20;99.90;;;;;;5263865;28;20426;-47
2023/09/15 00:33:00;;;;;;;3.33;3.10;;;13.20;99.90;;;;;;5259164;28;20455;-47
2023/09/15 00:35:31;;;;;;;4.10;3.80;;;13.20;99.90;;;;;;5249337;28;20446;-48
2023/09/15 00:38:03;;;;;;;3.87;3.60;;;13.20;99.90;;;;;;5250686;28;20658;-47
2023/09/15 00:40:34;;;;;;;5.53;3.50;;;13.30;99.90;;;;;;5243473;28;20749;-48
2023/09/15 00:43:04;;;;;;;5.13;3.70;;;13.20;99.90;;;;;;5261065;28;20448;-49
2023/09/15 00:45:35;;;;;;;5.03;2.80;;;13.30;99.90;;;;;;5261945;28;20638;-48
2023/09/15 00:48:08;;;;;;;4.87;3.57;;;13.30;99.90;;;;;;5241598;28;20181;-47
2023/09/15 00:50:39;;;;;;;4.87;2.87;;;13.30;99.90;;;;;;5245680;28;20706;-48
2023/09/15 00:53:16;;;;;;;4.60;2.90;;;13.30;99.90;;;;;;5246874;28;20463;-49
2023/09/15 00:55:48;;;;;;;4.30;2.63;;;13.30;99.90;;;;;;5239220;28;20186;-50
2023/09/15 00:58:19;;;;;;;2.60;2.40;;;13.30;99.90;;;;;;5245283;28;20440;-46
2023/09/15 01:00:52;;;;;;;3.33;2.87;;;13.30;99.90;;;;;;5252101;28;20854;-47
2023/09/15 01:03:24;;;;;;;2.10;1.93;;;13.30;99.90;;;;;;5258650;28;20432;-47
2023/09/15 01:05:55;;;;;;;3.10;2.90;;;13.30;99.90;;;;;;5241541;28;20522;-47
2023/09/15 01:08:26;;;;;;;7.07;3.13;;;13.20;99.90;;;;;;5262000;28;20570;-47
2023/09/15 01:11:01;;;;;;;5.00;2.70;;;13.20;99.90;;;;;;5265138;28;20434;-47
2023/09/15 01:13:33;;;;;;;3.27;2.83;;;13.10;99.90;;;;;;5269270;28;20478;-48
2023/09/15 01:16:12;;;;;;;7.30;2.63;;;13.10;99.90;;;;;;5260952;28;20782;-48
2023/09/15 01:18:49;;;;;;;3.80;2.27;;;13.10;99.90;;;;;;5252151;28;20424;-48
2023/09/15 01:21:53;;;;;;;2.53;2.43;;;13.10;99.90;;;;;;5253263;28;20550;-48
2023/09/15 01:24:53;;;;;;;3.27;2.70;;;13.00;99.90;;;;;;5247378;28;20435;-48
2023/09/15 01:27:41;;;;;;;4.60;2.80;;;13.00;99.90;;;;;;5244916;28;20432;-50
2023/09/15 01:30:13;;;;;;;3.07;2.87;;;13.00;99.90;;;;;;5267026;28;20457;-49
2023/09/15 01:32:45;;;;;;;3.40;3.13;;;12.90;99.90;;;;;;5249165;28;20451;-50
2023/09/15 01:35:16;;;;;;;6.37;3.20;;;12.90;99.90;;;;;;5220144;28;20939;-50
2023/09/15 01:37:47;;;;;;;4.20;2.60;;;12.90;99.90;;;;;;5245799;28;20482;-50
2023/09/15 01:40:17;;;;;;;3.37;3.17;;;12.90;99.90;;;;;;5241503;28;20209;-47
2023/09/15 01:42:50;;;;;;;5.53;3.60;;;12.80;99.90;;;;;;5246971;28;20199;-48
2023/09/15 01:45:21;;;;;;;5.00;2.80;;;12.80;99.90;;;;;;5250003;28;20269;-48
2023/09/15 01:47:52;;;;;;;3.60;3.30;;;12.80;99.90;;;;;;5247586;28;20523;-47
2023/09/15 01:50:25;;;;;;;3.10;2.90;;;12.90;99.90;;;;;;5258893;28;20240;-47
2023/09/15 01:52:56;;;;;;;4.27;3.50;;;12.90;99.90;;;;;;5243690;28;20463;-48
2023/09/15 01:55:28;;;;;;;3.37;3.07;;;12.90;99.90;;;;;;5246132;28;20528;-48
2023/09/15 01:57:59;;;;;;;6.50;3.77;;;12.90;99.90;;;;;;5262834;28;20474;-47
2023/09/15 02:00:35;;;;;;;4.17;3.77;;;12.90;99.90;;;;;;5251431;28;20491;-48
2023/09/15 02:03:06;;;;;;;4.77;3.53;;;12.90;99.90;;;;;;5261302;28;20292;-48
2023/09/15 02:05:37;;;;;;;3.60;3.17;;;12.80;99.90;;;;;;5268455;28;20487;-49
2023/09/15 02:08:07;;;;;;;8.50;3.13;;;12.80;99.90;;;;;;5246312;28;20508;-48
2023/09/15 02:10:38;;;;;;;4.27;2.90;;;12.80;99.90;;;;;;5259099;28;20204;-48
2023/09/15 02:13:09;;;;;;;3.77;2.80;;;12.80;99.90;;;;;;5245255;28;20194;-49
2023/09/15 02:15:40;;;;;;;10.27;3.90;;;12.80;99.90;;;;;;5243037;28;20268;-49
2023/09/15 02:18:13;;;;;;;3.80;3.43;;;12.80;99.90;;;;;;5265404;28;20238;-48
2023/09/15 02:20:52;;;;;;;8.90;4.03;;;12.80;99.90;;;;;;5251893;28;20197;-48
2023/09/15 02:23:23;;;;;;;4.33;3.67;;;12.80;99.90;;;;;;5264473;28;20499;-48
2023/09/15 02:25:54;;;;;;;5.13;4.63;;;12.80;99.90;;;;;;5259834;28;20427;-48
2023/09/15 02:28:25;;;;;;;7.23;4.40;;;12.80;99.90;;;;;;5243759;28;20436;-48
2023/09/15 02:30:56;;;;;;;7.13;3.33;;;12.80;99.90;;;;;;5256606;28;20274;-48
2023/09/15 02:33:26;;;;;;;5.47;4.37;;;12.80;99.90;;;;;;5262052;28;20205;-48
2023/09/15 02:35:58;;;;;;;10.60;3.50;;;12.70;99.90;;;;;;5239932;28;20439;-48
2023/09/15 02:38:28;;;;;;;5.50;4.30;;;12.70;99.90;;;;;;5247338;28;20188;-49
2023/09/15 02:40:59;;;;;;;3.77;3.47;;;12.80;99.90;;;;;;5261495;28;20460;-48
2023/09/15 02:43:30;;;;;;;3.53;3.23;;;12.70;99.90;;;;;;5246698;28;20274;-48
2023/09/15 02:46:06;;;;;;;8.57;4.10;;;12.70;99.90;;;;;;5263994;28;20181;-49
2023/09/15 02:48:40;;;;;;;3.70;3.33;;;12.70;99.90;;;;;;5264944;28;20189;-48
2023/09/15 02:51:10;;;;;;;3.33;3.13;;;12.80;99.90;;;;;;5266608;28;20867;-48
2023/09/15 02:53:41;;;;;;;9.50;4.13;;;12.70;99.90;;;;;;5261840;28;20529;-48
2023/09/15 02:56:15;;;;;;;3.77;3.47;;;12.70;99.90;;;;;;5244069;28;20190;-47
2023/09/15 02:58:46;;;;;;;4.33;3.27;;;12.70;99.90;;;;;;5240017;28;20177;-48
2023/09/15 03:01:18;;;;;;;9.33;3.93;;;12.70;99.90;;;;;;5251315;28;20476;-49
2023/09/15 03:03:49;;;;;;;4.07;3.70;;;12.60;99.90;;;;;;5266216;28;20903;-48
2023/09/15 03:06:20;;;;;;;3.40;3.20;;;12.70;99.90;;;;;;5253247;28;20431;-48
2023/09/15 03:08:51;;;;;;;7.97;3.90;;;12.60;99.90;;;;;;5245058;28;20439;-48
2023/09/15 03:11:22;;;;;;;5.33;4.13;;;12.60;99.90;;;;;;5266521;28;20188;-48
2023/09/15 03:13:53;;;;;;;7.13;4.07;;;12.60;99.90;;;;;;5242787;28;20187;-48
2023/09/15 03:16:26;;;;;;;3.43;3.23;;;12.50;99.90;;;;;;5259864;28;20428;-48
2023/09/15 03:18:56;;;;;;;12.63;3.50;;;12.50;99.90;;;;;;5255708;28;20434;-48
2023/09/15 03:21:27;;;;;;;5.40;3.47;;;12.50;99.90;;;;;;5260574;28;20463;-48
2023/09/15 03:23:58;;;;;;;3.40;3.30;;;12.50;99.90;;;;;;5261881;28;20174;-50
2023/09/15 03:26:29;;;;;;;5.83;4.97;;;12.50;99.90;;;;;;5239650;28;20213;-48
2023/09/15 03:29:00;;;;;;;7.90;4.10;;;12.50;99.90;;;;;;5242220;28;20649;-48
2023/09/15 03:31:31;;;;;;;7.43;3.77;;;12.50;99.90;;;;;;5266408;28;20419;-49
2023/09/15 03:34:01;;;;;;;4.17;3.77;;;12.50;99.90;;;;;;5250259;28;20269;-47
2023/09/15 03:36:32;;;;;;;5.37;4.00;;;12.50;99.90;;;;;;5269979;28;20196;-48
2023/09/15 03:39:03;;;;;;;7.47;4.13;;;12.50;99.90;;;;;;5247711;28;20177;-48
2023/09/15 03:41:34;;;;;;;4.57;4.30;;;12.40;99.90;;;;;;5244865;28;20202;-48
2023/09/15 03:44:05;;;;;;;4.50;4.10;;;12.40;99.90;;;;;;5247073;28;20435;-48
2023/09/15 03:46:36;;;;;;;5.07;4.00;;;12.50;99.90;;;;;;5264752;28;20181;-49
2023/09/15 03:49:06;;;;;;;3.77;3.53;;;12.40;99.90;;;;;;5239684;28;20435;-48
2023/09/15 03:51:37;;;;;;;4.20;3.90;;;12.40;99.90;;;;;;5241392;28;20619;-48
2023/09/15 03:54:08;;;;;;;6.53;4.70;;;12.40;99.90;;;;;;5250581;28;20224;-48
2023/09/15 03:56:39;;;;;;;4.13;3.83;;;12.40;99.90;;;;;;5244319;28;20553;-48
2023/09/15 03:59:09;;;;;;;8.97;4.40;;;12.40;99.90;;;;;;5250773;28;20215;-49
2023/09/15 04:01:40;;;;;;;4.53;3.97;;;12.40;99.90;;;;;;5238388;28;20214;-48
2023/09/15 04:04:11;;;;;;;5.57;4.10;;;12.40;99.90;;;;;;5243972;28;20245;-49
2023/09/15 04:06:45;;;;;;;7.60;4.40;;;12.40;99.90;;;;;;5267292;28;20173;-48
2023/09/15 04:09:16;;;;;;;4.47;4.00;;;12.40;99.90;;;;;;5240629;28;20175;-49
2023/09/15 04:11:46;;;;;;;7.93;4.67;;;12.40;99.90;;;;;;5243583;28;20456;-50
2023/09/15 04:14:18;;;;;;;4.13;3.83;;;12.40;99.90;;;;;;5246605;28;20185;-48
2023/09/15 04:16:48;;;;;;;4.63;4.23;;;12.40;99.90;;;;;;5244651;28;20189;-49
2023/09/15 04:19:19;;;;;;;5.60;5.07;;;12.40;99.90;;;;;;5240779;28;20942;-48
2023/09/15 04:21:50;;;;;;;4.87;4.43;;;12.40;99.90;;;;;;5256412;28;20216;-49
2023/09/15 04:24:21;;;;;;;6.60;4.67;;;12.40;99.90;;;;;;5238012;28;20189;-49
2023/09/15 04:26:52;;;;;;;4.53;4.13;;;12.40;99.90;;;;;;5259332;28;20178;-48
2023/09/15 04:29:23;;;;;;;7.80;4.53;;;12.40;99.90;;;;;;5258820;28;20452;-48
2023/09/15 04:31:53;;;;;;;3.90;3.60;;;12.40;99.90;;;;;;5237926;28;20213;-49
2023/09/15 04:34:25;;;;;;;7.47;4.20;;;12.40;99.90;;;;;;5264710;28;20412;-49
2023/09/15 04:36:55;;;;;;;10.63;4.87;;;12.30;99.90;;;;;;5262440;28;20188;-48
2023/09/15 04:39:27;;;;;;;8.80;4.97;;;12.30;99.90;;;;;;5257990;28;20440;-48
2023/09/15 04:41:58;;;;;;;7.63;5.40;;;12.40;99.90;;;;;;5261424;28;20302;-49
2023/09/15 04:44:28;;;;;;;5.20;4.70;;;12.40;99.90;;;;;;5267763;28;20459;-48
2023/09/15 04:47:00;;;;;;;6.33;5.10;;;12.40;99.90;;;;;;5266919;28;20194;-48
2023/09/15 04:49:31;;;;;;;12.47;5.03;;;12.40;99.90;;;;;;5268367;28;20184;-49
2023/09/15 04:52:07;;;;;;;11.27;5.90;;;12.40;99.90;;;;;;5258195;28;20459;-48
2023/09/15 04:54:38;;;;;;;9.87;4.50;;;12.40;99.90;;;;;;5259995;28;20316;-47
2023/09/15 04:57:08;;;;;;;9.93;5.37;;;12.40;99.90;;;;;;5242958;28;20424;-48
2023/09/15 04:59:39;;;;;;;14.20;5.43;;;12.40;99.90;;;;;;5260727;28;20189;-48
2023/09/15 05:02:10;;;;;;;7.27;4.87;;;12.30;99.90;;;;;;5245841;28;20612;-49
2023/09/15 05:04:41;;;;;;;10.33;5.17;;;12.40;99.90;;;;;;5271046;28;20520;-49
2023/09/15 05:07:12;;;;;;;13.03;5.87;;;12.50;99.90;;;;;;5266725;28;20265;-49
2023/09/15 05:09:42;;;;;;;8.53;5.53;;;12.50;99.90;;;;;;5261326;28;20178;-50
2023/09/15 05:12:15;;;;;;;6.40;5.33;;;12.50;99.90;;;;;;5242075;28;20552;-49
2023/09/15 05:14:46;;;;;;;8.13;4.77;;;12.50;99.90;;;;;;5246506;28;20176;-49
2023/09/15 05:17:17;;;;;;;7.80;5.33;;;12.50;99.90;;;;;;5264980;28;20804;-49
2023/09/15 05:19:49;;;;;;;6.33;5.60;;;12.60;99.90;;;;;;5263724;28;20253;-49
2023/09/15 05:22:20;;;;;;;6.43;4.90;;;12.60;99.90;;;;;;5257944;28;20233;-48
2023/09/15 05:24:50;;;;;;;8.37;5.30;;;12.60;99.90;;;;;;5248467;28;20850;-50
2023/09/15 05:27:21;;;;;;;10.43;5.33;;;12.70;99.90;;;;;;5247479;28;20185;-49
2023/09/15 05:29:52;;;;;;;8.60;5.10;;;12.70;99.90;;;;;;5245192;28;20524;-49
2023/09/15 05:32:23;;;;;;;8.63;4.90;;;12.80;99.90;;;;;;5236088;28;20452;-49
2023/09/15 05:34:54;;;;;;;10.80;4.90;;;12.90;99.90;;;;;;5262715;28;20177;-50
2023/09/15 05:37:24;;;;;;;5.40;4.50;;;12.90;99.90;;;;;;5269142;28;20177;-50
2023/09/15 05:39:55;;;;;;;8.70;5.50;;;13.00;99.90;;;;;;5266834;28;20457;-49
2023/09/15 05:42:26;;;;;;;10.90;5.17;;;13.10;99.90;;;;;;5260066;28;20230;-49
2023/09/15 05:44:57;;;;;;;10.63;5.50;;;13.10;99.90;;;;;;5239815;28;20661;-50
2023/09/15 05:47:27;;;;;;;6.63;5.50;;;13.20;99.90;;;;;;5265103;28;20174;-49
2023/09/15 05:50:04;;;;;;;6.43;4.87;;;13.30;99.90;;;;;;5249683;28;20205;-50
2023/09/15 05:52:34;;;;;;;5.30;4.77;;;13.60;99.90;;;;;;5243862;28;20817;-51
2023/09/15 05:55:05;;;;;;;8.30;4.70;;;13.80;99.90;;;;;;5247210;28;20446;-50
2023/09/15 05:57:36;;;;;;;6.40;4.20;;;14.40;99.90;;;;;;5265663;28;20202;-49
2023/09/15 06:00:08;;;;;;;8.13;4.30;;;16.10;99.90;;;;;;5256707;28;20505;-50
2023/09/15 06:02:38;;;;;;;4.90;4.50;;;18.40;99.90;;;;;;5244393;28;21123;-51
2023/09/15 06:05:09;;;;;;;7.63;4.53;;;20.40;99.90;;;;;;5262867;28;20470;-50
2023/09/15 06:07:40;;;;;;;4.60;4.13;;;21.50;99.90;;;;;;5248582;28;20175;-52
2023/09/15 06:10:10;;;;;;;6.30;4.00;;;22.30;99.10;;;;;;5261493;28;20254;-51
2023/09/15 06:12:41;;;;;;;4.90;4.20;;;23.20;95.20;;;;;;5257363;28;20227;-51
2023/09/15 06:15:13;;;;;;;4.30;3.53;;;24.00;91.60;;;;;;5259174;28;20564;-50
2023/09/15 06:17:44;;;;;;;7.57;4.07;;;24.70;84.80;;;;;;5264440;28;20568;-52
2023/09/15 06:20:14;;;;;;;9.83;3.17;;;24.90;78.90;;;;;;5262683;28;20460;-51
2023/09/15 06:22:45;;;;;;;5.60;4.03;;;25.30;75.80;;;;;;5254841;28;20452;-52
2023/09/15 06:25:16;;;;;;;3.73;3.53;;;25.50;73.30;;;;;;5259949;28;20253;-50
2023/09/15 06:27:46;;;;;;;3.23;2.97;;;25.80;70.10;;;;;;5241042;28;20199;-50
2023/09/15 06:30:17;;;;;;;3.20;2.90;;;25.90;67.70;;;;;;5249471;28;20190;-51
2023/09/15 06:32:48;;;;;;;4.67;3.40;;;26.30;66.40;;;;;;5268842;28;20205;-51
2023/09/15 06:35:19;;;;;;;6.40;2.90;;;27.00;62.40;;;;;;5261868;28;20182;-51
2023/09/15 06:37:50;;;;;;;8.03;3.30;;;27.20;59.60;;;;;;5243580;28;20182;-50
2023/09/15 06:40:20;;;;;;;7.40;3.30;;;26.80;59.80;;;;;;5261646;28;20225;-50
2023/09/15 06:42:51;;;;;;;4.53;3.00;;;26.80;59.70;;;;;;5253254;28;20682;-51
2023/09/15 06:45:22;;;;;;;4.80;3.70;;;27.40;58.60;;;;;;5239403;28;20182;-51
2023/09/15 06:47:53;;;;;;;8.63;3.73;;;27.80;57.00;;;;;;5256121;28;20432;-51
2023/09/15 06:50:23;;;;;;;3.03;2.83;;;28.10;56.40;;;;;;5242267;28;20213;-53
2023/09/15 06:52:54;;;;;;;3.20;2.80;;;28.80;54.00;;;;;;5242782;28;20210;-52
2023/09/15 06:55:25;;;;;;;3.90;3.03;;;29.60;52.00;;;;;;5255500;28;20189;-52
2023/09/15 06:57:55;;;;;;;3.37;3.07;;;29.50;51.00;;;;;;5240521;28;20180;-51
2023/09/15 07:00:26;;;;;;;3.53;3.03;;;29.40;51.60;;;;;;5258812;28;20210;-52
2023/09/15 07:02:57;;;;;;;3.27;2.97;;;29.90;50.50;;;;;;5264394;28;20197;-52
2023/09/15 07:05:27;;;;;;;3.53;3.23;;;30.30;49.00;;;;;;5259646;28;20280;-52
2023/09/15 07:07:58;;;;;;;8.17;3.80;;;30.60;47.20;;;;;;5268806;28;20177;-53
2023/09/15 07:10:29;;;;;;;2.70;2.50;;;30.50;47.00;;;;;;5242495;28;20316;-51
2023/09/15 07:12:59;;;;;;;3.30;2.60;;;30.80;47.60;;;;;;5240681;28;20239;-52
2023/09/15 07:15:32;;;;;;;3.43;2.93;;;31.80;46.00;;;;;;5259738;28;20193;-52
2023/09/15 07:18:04;;;;;;;4.00;2.60;;;32.40;43.80;;;;;;5243531;28;20181;-52
2023/09/15 07:20:35;;;;;;;3.60;1.80;;;33.40;42.30;;;;;;5248405;28;20455;-52
2023/09/15 07:23:05;;;;;;;3.97;3.00;;;33.30;40.90;;;;;;5261985;28;20455;-52
2023/09/15 07:25:36;;;;;;;3.33;2.33;;;32.40;40.80;;;;;;5257031;28;20212;-51
2023/09/15 07:28:07;;;;;;;5.63;2.30;;;31.80;42.30;;;;;;5239775;28;20948;-51
2023/09/15 07:30:41;;;;;;;4.37;3.40;;;31.80;42.70;;;;;;5260508;28;20526;-52
2023/09/15 07:33:12;;;;;;;2.50;2.40;;;32.20;41.40;;;;;;5237007;28;20201;-50
2023/09/15 07:35:43;;;;;;;5.47;3.07;;;31.00;43.00;;;;;;5263700;28;20455;-52
2023/09/15 07:38:13;;;;;;;3.27;2.73;;;30.70;43.80;;;;;;5235991;28;20646;-51
2023/09/15 07:40:44;;;;;;;3.83;2.90;;;30.00;44.70;;;;;;5261030;28;20200;-51
2023/09/15 07:43:15;;;;;;;2.90;2.70;;;30.30;45.40;;;;;;5242574;28;20227;-52
2023/09/15 07:45:46;;;;;;;4.43;3.30;;;31.40;43.60;;;;;;5254533;28;20542;-53
2023/09/15 07:48:17;;;;;;;2.77;2.53;;;31.20;42.90;;;;;;5255250;28;20173;-51
2023/09/15 07:50:48;;;;;;;2.57;2.40;;;30.40;44.20;;;;;;5246958;28;20178;-52
2023/09/15 07:53:21;;;;;;;3.50;2.80;;;29.90;44.70;;;;;;5245603;28;20463;-51
2023/09/15 07:55:52;;;;;;;3.77;2.73;;;29.40;45.50;;;;;;5242204;28;20431;-52
2023/09/15 07:58:23;;;;;;;5.40;2.67;;;29.30;46.20;;;;;;5242518;28;20431;-52
2023/09/15 08:00:53;;;;;;;2.50;2.40;;;29.50;45.90;;;;;;5258191;28;20293;-51
2023/09/15 08:03:27;;;;;;;3.60;3.03;;;28.60;47.00;;;;;;5258151;28;20670;-52
2023/09/15 08:05:58;;;;;;;3.60;3.30;;;27.30;49.40;;;;;;5258952;28;20178;-51
2023/09/15 08:08:29;;;;;;;4.00;3.10;;;26.20;51.80;;;;;;5243923;28;20437;-50
2023/09/15 08:11:00;;;;;;;2.17;2.10;;;25.30;54.00;;;;;;5223376;28;20431;-53
2023/09/15 08:13:31;;;;;;;3.60;2.73;;;24.60;55.40;;;;;;5244583;28;20763;-49
2023/09/15 08:16:02;;;;;;;15.53;2.33;;;23.80;56.60;;;;;;5241392;28;20178;-51
2023/09/15 08:18:32;;;;;;;2.20;2.10;;;23.00;58.40;;;;;;5243636;28;20182;-51
2023/09/15 08:21:03;;;;;;;3.53;3.23;;;22.60;59.60;;;;;;5255610;28;20266;-49
2023/09/15 08:23:34;;;;;;;3.30;3.10;;;22.00;60.90;;;;;;5238189;28;20221;-51
2023/09/15 08:26:08;;;;;;;9.20;3.20;;;21.70;62.80;;;;;;5262761;28;20234;-49
2023/09/15 08:28:39;;;;;;;4.63;2.87;;;21.20;63.70;;;;;;5260859;28;20280;-50
2023/09/15 08:31:13;;;;;;;3.43;3.13;;;20.70;65.70;;;;;;5236978;28;20547;-50
2023/09/15 08:33:44;;;;;;;3.40;2.50;;;20.40;66.90;;;;;;5263375;28;20217;-52
2023/09/15 08:36:14;;;;;;;3.57;3.00;;;20.30;68.40;;;;;;5258176;28;20796;-52
2023/09/15 08:38:45;;;;;;;3.53;2.40;;;20.40;69.20;;;;;;5260494;28;20178;-50
2023/09/15 08:41:29;;;;;;;8.47;2.77;;;20.30;70.90;;;;;;5259083;28;20293;-51
2023/09/15 08:44:02;;;;;;;2.90;2.77;;;20.10;73.00;;;;;;5256279;28;20177;-50
2023/09/15 08:46:34;;;;;;;2.87;2.67;;;19.90;74.90;;;;;;5255220;28;20424;-51
2023/09/15 08:49:08;;;;;;;7.90;2.87;;;19.80;76.50;;;;;;5263433;28;20431;-51
2023/09/15 08:51:39;;;;;;;2.53;2.33;;;19.70;77.20;;;;;;5261387;28;20467;-49
2023/09/15 08:54:12;;;;;;;2.70;2.60;;;19.70;78.60;;;;;;5244124;28;20791;-50
2023/09/15 08:56:47;;;;;;;8.97;2.73;;;19.90;79.80;;;;;;5241761;28;20481;-51
2023/09/15 08:59:18;;;;;;;11.20;3.93;;;20.20;80.00;;;;;;5256413;28;20439;-51
2023/09/15 09:01:50;;;;;;;3.60;2.57;;;20.30;80.90;;;;;;5236986;28;20459;-49
2023/09/15 09:04:21;;;;;;;2.40;2.00;;;20.20;80.20;;;;;;5249260;28;20443;-49
2023/09/15 09:06:52;;;;;;;2.40;2.30;;;20.20;81.10;;;;;;5239984;28;20447;-50
2023/09/15 09:09:24;;;;;;;5.23;2.57;;;20.10;82.30;;;;;;5245531;28;20185;-50
2023/09/15 09:11:54;;;;;;;5.63;2.47;;;19.90;80.80;;;;;;5242435;28;20538;-50
2023/09/15 09:14:25;;;;;;;7.10;2.57;;;19.90;81.70;;;;;;5239240;28;20511;-50
2023/09/15 09:16:56;;;;;;;2.07;1.87;;;19.90;81.70;;;;;;5257251;28;20186;-50
2023/09/15 09:19:46;;;;;;;2.80;2.20;;;20.00;82.20;;;;;;5236560;28;21333;-51
2023/09/15 09:22:20;;;;;;;1.97;1.87;;;20.00;81.40;;;;;;5255283;28;20473;-51
2023/09/15 09:24:57;;;;;;;2.43;2.23;;;20.00;82.30;;;;;;5240652;28;20433;-50
2023/09/15 09:27:35;;;;;;;4.73;2.27;;;20.10;80.80;;;;;;5263290;28;20447;-50
2023/09/15 09:30:06;;;;;;;3.30;3.10;;;20.00;80.20;;;;;;5259674;28;21903;-50
2023/09/15 09:32:37;;;;;;;2.60;2.17;;;20.20;80.80;;;;;;5266331;28;20463;-51
2023/09/15 09:35:09;;;;;;;3.87;2.53;;;20.30;79.30;;;;;;5267513;28;20506;-51
2023/09/15 09:37:40;;;;;;;2.67;2.13;;;20.20;78.60;;;;;;5263047;28;20432;-50
2023/09/15 09:40:11;;;;;;;2.07;1.97;;;20.10;77.40;;;;;;5259678;28;20461;-50
2023/09/15 09:42:42;;;;;;;3.93;2.17;;;20.10;78.20;;;;;;5243728;28;20455;-50
2023/09/15 09:45:14;;;;;;;2.10;2.00;;;20.20;79.80;;;;;;5225694;28;21700;-50
2023/09/15 09:47:45;;;;;;;1.93;1.83;;;20.20;80.10;;;;;;5249736;28;20439;-49
2023/09/15 09:50:19;;;;;;;2.30;2.10;;;20.40;77.10;;;;;;5243244;28;20444;-50
2023/09/15 09:52:50;;;;;;;6.20;2.57;;;20.40;77.70;;;;;;5259262;28;20467;-50
2023/09/15 09:55:24;;;;;;;2.13;2.10;;;20.60;76.00;;;;;;5262172;28;20956;-51
2023/09/15 09:58:04;;;;;;;1.87;1.77;;;20.70;76.00;;;;;;5263455;28;20518;-51
2023/09/15 10:00:36;;;;;;;2.20;2.00;;;20.80;75.80;;;;;;5249242;28;20459;-50
2023/09/15 10:03:07;;;;;;;4.00;2.30;;;20.80;74.20;;;;;;5256823;28;20579;-49
2023/09/15 10:05:37;;;;;;;1.80;1.70;;;20.70;73.70;;;;;;5238067;28;20417;-51
2023/09/15 10:08:09;;;;;;;1.50;1.50;;;20.60;73.00;;;;;;5263308;28;20661;-51
2023/09/15 10:10:44;;;;;;;2.20;2.10;;;20.50;72.70;;;;;;5242629;28;20182;-50
2023/09/15 10:13:14;;;;;;;4.60;2.23;;;20.40;74.40;;;;;;5258311;28;20558;-51
2023/09/15 10:15:46;;;;;;;1.87;1.77;;;20.50;74.50;;;;;;5247666;28;20561;-50
2023/09/15 10:18:19;;;;;;;5.60;1.63;;;20.50;71.40;;;;;;5258792;28;20189;-51
2023/09/15 10:20:54;;;;;;;1.77;1.67;;;20.50;72.00;;;;;;5260517;28;20952;-49
2023/09/15 10:23:24;;;;;;;1.93;1.80;;;20.50;71.50;;;;;;5245998;28;20543;-51
2023/09/15 10:25:55;;;;;;;1.50;1.40;;;20.50;71.30;;;;;;5223234;28;20467;-49
2023/09/15 10:28:26;;;;;;;2.00;1.90;;;20.60;70.40;;;;;;5256452;28;20269;-50
2023/09/15 10:30:58;;;;;;;1.80;1.40;;;20.60;67.70;;;;;;5228866;28;20235;-50
2023/09/15 10:33:30;;;;;;;2.50;2.27;;;20.60;68.50;;;;;;5263957;28;20201;-50
2023/09/15 10:36:06;;;;;;;3.13;1.60;;;20.70;68.50;;;;;;5244993;28;20437;-49
2023/09/15 10:38:36;;;;;;;2.40;2.07;;;20.90;67.50;;;;;;5238862;28;20439;-51
2023/09/15 10:41:09;;;;;;;4.40;2.10;;;20.90;67.40;;;;;;5257606;28;20456;-51
2023/09/15 10:43:51;;;;;;;2.00;1.73;;;20.90;67.70;;;;;;5255538;28;20205;-50
2023/09/15 10:46:37;;;;;;;2.60;1.77;;;20.90;68.00;;;;;;5262235;28;20495;-50
2023/09/15 10:49:19;;;;;;;2.30;2.10;;;21.00;69.10;;;;;;5241449;28;20467;-49
2023/09/15 10:51:55;;;;;;;2.30;2.10;;;21.20;68.40;;;;;;5247692;28;20465;-51
2023/09/15 10:54:30;;;;;;;5.73;2.60;;;21.20;67.70;;;;;;5241460;28;20462;-50
2023/09/15 10:57:01;;;;;;;3.17;2.13;;;21.10;67.00;;;;;;5243053;28;20592;-50
2023/09/15 10:59:33;;;;;;;2.40;2.20;;;21.10;67.90;;;;;;5244339;28;20803;-49
2023/09/15 11:02:04;;;;;;;3.07;2.20;;;21.10;68.00;;;;;;5247120;28;20468;-49
2023/09/15 11:04:35;;;;;;;4.63;2.23;;;21.10;69.10;;;;;;5252941;28;20833;-51
2023/09/15 11:07:06;;;;;;;4.57;1.87;;;21.10;69.20;;;;;;5242452;28;20477;-52
2023/09/15 11:09:42;;;;;;;5.70;2.20;;;21.30;70.10;;;;;;5264464;28;20170;-50
2023/09/15 11:12:12;;;;;;;3.60;2.37;;;21.40;67.40;;;;;;5259583;28;20455;-49
2023/09/15 11:14:43;;;;;;;2.60;2.40;;;21.40;66.30;;;;;;5261047;28;20688;-50
2023/09/15 11:17:17;;;;;;;2.50;2.30;;;21.40;66.40;;;;;;5264968;28;20635;-48
2023/09/15 11:19:48;;;;;;;2.23;2.00;;;21.40;67.30;;;;;;5226939;28;20186;-50
2023/09/15 11:22:18;;;;;;;3.00;2.80;;;21.30;67.60;;;;;;5264511;28;20463;-50
2023/09/15 11:24:52;;;;;;;3.43;2.50;;;21.30;68.90;;;;;;5263196;28;20182;-50
2023/09/15 11:27:23;;;;;;;7.07;2.43;;;21.40;69.80;;;;;;5241999;28;20178;-50
2023/09/15 11:29:54;;;;;;;2.20;2.00;;;21.40;70.60;;;;;;5244867;28;20836;-49
2023/09/15 11:32:24;;;;;;;2.47;2.13;;;21.40;70.70;;;;;;5246031;28;20208;-49
2023/09/15 11:34:56;;;;;;;2.50;2.17;;;21.30;70.90;;;;;;5261978;28;20185;-49
2023/09/15 11:37:27;;;;;;;1.80;1.70;;;21.40;70.70;;;;;;5248594;28;20178;-48
2023/09/15 11:39:57;;;;;;;6.23;2.27;;;21.50;70.20;;;;;;5264259;28;20449;-49
2023/09/15 11:42:28;;;;;;;1.37;1.37;;;21.60;69.50;;;;;;5242310;28;20224;-49
2023/09/15 11:45:00;;;;;;;2.90;2.43;;;21.60;68.80;;;;;;5258671;28;20178;-49
2023/09/15 11:47:32;;;;;;;2.77;2.17;;;21.70;69.50;;;;;;5263932;28;20555;-50
2023/09/15 11:50:03;;;;;;;9.10;1.87;;;21.80;69.50;;;;;;5248089;28;20440;-49
2023/09/15 11:52:35;;;;;;;4.20;2.20;;;21.90;68.70;;;;;;5240971;28;20610;-52
2023/09/15 11:55:17;;;;;;;2.60;2.40;;;21.90;68.70;;;;;;5254990;28;21495;-50
2023/09/15 11:57:49;;;;;;;2.07;1.97;;;22.00;68.10;;;;;;5258113;28;20430;-48
2023/09/15 12:00:21;;;;;;;2.73;2.10;;;22.00;68.40;;;;;;5257885;28;20476;-49
2023/09/15 12:02:54;;;;;;;1.70;1.60;;;22.20;68.00;;;;;;5243755;28;20947;-51
2023/09/15 12:05:29;;;;;;;3.20;2.00;;;22.30;67.10;;;;;;5246674;28;20431;-50
2023/09/15 12:07:59;;;;;;;3.40;2.03;;;22.40;67.30;;;;;;5222767;28;20470;-49
2023/09/15 12:10:30;;;;;;;2.13;2.03;;;22.20;67.00;;;;;;5221546;28;20448;-51
2023/09/15 12:13:01;;;;;;;3.80;2.57;;;22.20;66.10;;;;;;5257594;28;20205;-48
2023/09/15 12:15:32;;;;;;;2.30;2.20;;;22.10;66.60;;;;;;5241210;28;20551;-49
2023/09/15 12:18:05;;;;;;;2.50;2.17;;;21.80;67.00;;;;;;5234916;28;20500;-50
2023/09/15 12:20:38;;;;;;;2.93;2.00;;;21.80;66.70;;;;;;5256034;28;20530;-51
2023/09/15 12:23:12;;;;;;;5.90;2.20;;;21.90;66.50;;;;;;5240344;28;20479;-50
2023/09/15 12:25:43;;;;;;;2.17;2.07;;;22.00;65.50;;;;;;5260566;28;20527;-49
2023/09/15 12:28:14;;;;;;;2.60;2.40;;;22.20;65.30;;;;;;5238573;28;20466;-49
2023/09/15 12:30:48;;;;;;;2.73;2.53;;;22.50;63.90;;;;;;5252664;28;20511;-51
2023/09/15 12:33:19;;;;;;;2.33;2.23;;;22.60;63.80;;;;;;5233320;28;20209;-50
2023/09/15 12:35:51;;;;;;;2.43;2.23;;;22.70;63.50;;;;;;5256641;28;20439;-51
2023/09/15 12:38:21;;;;;;;2.07;1.87;;;22.90;63.90;;;;;;5238232;28;20439;-49
2023/09/15 12:40:52;;;;;;;1.93;1.83;;;23.00;64.10;;;;;;5237660;28;20471;-51
2023/09/15 12:43:23;;;;;;;2.43;2.30;;;23.00;62.40;;;;;;5232389;28;20300;-50
2023/09/15 12:45:53;;;;;;;2.13;2.03;;;23.10;62.30;;;;;;5237060;28;20296;-51
2023/09/15 12:48:24;;;;;;;2.33;2.23;;;23.20;62.20;;;;;;5253982;28;20187;-50
2023/09/15 12:50:55;;;;;;;8.40;2.97;;;23.50;61.70;;;;;;5242729;28;20182;-48
2023/09/15 12:53:26;;;;;;;2.20;2.10;;;23.60;61.60;;;;;;5257059;28;20316;-51
2023/09/15 12:55:58;;;;;;;2.63;2.43;;;23.50;61.50;;;;;;5240569;28;20685;-49
2023/09/15 12:58:29;;;;;;;3.00;2.80;;;23.50;62.30;;;;;;5253783;28;20849;-48
2023/09/15 13:00:59;;;;;;;2.90;2.40;;;23.40;61.70;;;;;;5257308;28;20463;-50
2023/09/15 13:03:30;;;;;;;3.90;2.00;;;23.10;62.30;;;;;;5265932;28;20212;-49
2023/09/15 13:06:02;;;;;;;2.20;2.10;;;22.90;63.20;;;;;;5226977;28;20185;-50
2023/09/15 13:08:32;;;;;;;2.60;2.40;;;22.50;63.90;;;;;;5265803;28;20772;-50
2023/09/15 13:11:03;;;;;;;4.20;2.63;;;22.30;64.60;;;;;;5264705;28;20462;-48